LSZS Airport Information

Runway Information
Runway 03 Length 5905 ft width 130 ft
Elevation 5600 ft Threshold 0 ft Heading 29
Runway 21 Length 5905 ft Width 130 ft
Elevation 5574 ft Threshold 360 ft Heading 209
Airport Frequencies
Type A/G Name GLIDER Frequency 123.67 MHZ
Type ATIS Name ATIS Frequency 136.6 MHZ
Type GND Name GND Frequency 121.6 MHZ
Type INFO Name INFO Frequency 138.05 MHZ
Type TWR Name TWR Frequency 135.325 MHZ
Airport Navaids
Airport Weather Information & NOTAM
ADDS - METARS form results

(0915 UTC 16 December 2018)
Data provider http://aviationweather.gov/metar/data/
 
METAR text: LSZS 160850Z 22004KT 9999 SCT050 M06/M08 Q1012 R03/410195 RMK E
Conditions at: LSZS (SAMEDAN , CH) observed 0850 UTC 16 December 2018
Temperature: -6.0°C (21°F)
Dewpoint: -8.0°C (18°F) [RH = 86%]
Pressure (altimeter): 29.88 inches Hg (1012.0 mb)
Winds: from the SW (220 degrees) at 5 MPH (4 knots; 2.1 m/s)
Visibility: 6 or more miles (10+ km)
Ceiling: at least 12,000 feet AGL
Clouds: scattered clouds at 5000 feet AGL
Weather: no significant weather observed at this time

METAR text: LSZS 160820Z 21006KT 160V240 9999 FEW029 BKN054 M06/M08 Q1012 R03/92//// RMK D
Conditions at: LSZS (SAMEDAN , CH) observed 0820 UTC 16 December 2018
Temperature: -6.0°C (21°F)
Dewpoint: -8.0°C (18°F) [RH = 86%]
Pressure (altimeter): 29.88 inches Hg (1012.0 mb)
Winds: from the SSW (210 degrees) at 7 MPH (6 knots; 3.1 m/s)
Visibility: 6 or more miles (10+ km)
Ceiling: 5400 feet AGL
Clouds: few clouds at 2900 feet AGL
broken clouds at 5400 feet AGL
Weather: no significant weather observed at this time

Forecast for: LSZS (SAMEDAN , CH)
Text: TAF LSZS 160825Z 1609/1618 VRB03KT 9999 SCT020 BKN040 TXM02/1614Z
Forecast period: 0900 to 1800 UTC 16 December 2018
Forecast type: FROM: standard forecast or significant change
Winds: variable direction winds at 3 MPH (3 knots; 1.5 m/s)
Visibility: 6 or more miles 10+ km)
Ceiling: 4000 feet AGL
Clouds: scattered clouds at 2000 feet AGL
broken clouds at 4000 feet AGL
Weather: no significant weather forecast for this period
Text: PROB40
Forecast period: 0900 to 1200 UTC 16 December 2018
Forecast type: TEMPORARY: The following changes expected for less than half the time period
Visibility: 1.86 miles (2.99 km)
Ceiling: 800 feet AGL
Clouds: broken clouds at 800 feet AGL
Weather: -SN  (light snow)